sensor_id;sensor_type;location;lat;lon;timestamp;P1;durP1;ratioP1;P2;durP2;ratioP2
773;SDS011;370;48.810;9.150;2023-05-07T00:02:05;7.47;;;2.58;;
773;SDS011;370;48.810;9.150;2023-05-07T00:04:33;4.55;;;1.85;;
773;SDS011;370;48.810;9.150;2023-05-07T00:07:03;2.75;;;2.30;;
773;SDS011;370;48.810;9.150;2023-05-07T00:09:31;4.60;;;2.20;;
773;SDS011;370;48.810;9.150;2023-05-07T00:11:57;4.72;;;2.28;;
773;SDS011;370;48.810;9.150;2023-05-07T00:14:24;3.63;;;2.50;;
773;SDS011;370;48.810;9.150;2023-05-07T00:16:51;5.03;;;2.35;;
773;SDS011;370;48.810;9.150;2023-05-07T00:19:18;4.65;;;2.03;;
773;SDS011;370;48.810;9.150;2023-05-07T00:21:44;2.25;;;2.03;;
773;SDS011;370;48.810;9.150;2023-05-07T00:24:13;4.90;;;2.75;;
773;SDS011;370;48.810;9.150;2023-05-07T00:26:39;8.48;;;2.70;;
773;SDS011;370;48.810;9.150;2023-05-07T00:29:06;2.80;;;2.00;;
773;SDS011;370;48.810;9.150;2023-05-07T00:31:33;4.85;;;2.55;;
773;SDS011;370;48.810;9.150;2023-05-07T00:34:00;4.00;;;3.03;;
773;SDS011;370;48.810;9.150;2023-05-07T00:36:27;4.40;;;2.67;;
773;SDS011;370;48.810;9.150;2023-05-07T00:38:54;5.20;;;2.58;;
773;SDS011;370;48.810;9.150;2023-05-07T00:41:22;5.32;;;2.47;;
773;SDS011;370;48.810;9.150;2023-05-07T00:43:49;6.90;;;3.42;;
773;SDS011;370;48.810;9.150;2023-05-07T00:46:17;6.90;;;2.95;;
773;SDS011;370;48.810;9.150;2023-05-07T00:48:45;6.82;;;2.90;;
773;SDS011;370;48.810;9.150;2023-05-07T00:51:11;4.30;;;2.40;;
773;SDS011;370;48.810;9.150;2023-05-07T00:53:39;2.88;;;2.60;;
773;SDS011;370;48.810;9.150;2023-05-07T00:56:06;6.75;;;2.63;;
773;SDS011;370;48.810;9.150;2023-05-07T00:58:34;6.50;;;2.60;;
773;SDS011;370;48.810;9.150;2023-05-07T01:01:01;7.13;;;2.63;;
773;SDS011;370;48.810;9.150;2023-05-07T01:03:28;6.25;;;2.95;;
773;SDS011;370;48.810;9.150;2023-05-07T01:05:55;4.30;;;2.45;;
773;SDS011;370;48.810;9.150;2023-05-07T01:08:25;3.92;;;2.50;;
773;SDS011;370;48.810;9.150;2023-05-07T01:10:53;5.65;;;3.50;;
773;SDS011;370;48.810;9.150;2023-05-07T01:13:20;7.63;;;2.75;;
773;SDS011;370;48.810;9.150;2023-05-07T01:15:49;4.82;;;2.65;;
773;SDS011;370;48.810;9.150;2023-05-07T01:18:16;4.32;;;2.15;;
773;SDS011;370;48.810;9.150;2023-05-07T01:20:42;2.97;;;2.28;;
773;SDS011;370;48.810;9.150;2023-05-07T01:23:11;4.65;;;2.75;;
773;SDS011;370;48.810;9.150;2023-05-07T01:25:38;2.70;;;2.10;;
773;SDS011;370;48.810;9.150;2023-05-07T01:28:05;4.72;;;2.30;;
773;SDS011;370;48.810;9.150;2023-05-07T01:30:31;5.35;;;2.22;;
773;SDS011;370;48.810;9.150;2023-05-07T01:33:01;2.67;;;1.75;;
773;SDS011;370;48.810;9.150;2023-05-07T01:35:32;3.78;;;2.25;;
773;SDS011;370;48.810;9.150;2023-05-07T01:38:03;2.28;;;1.85;;
773;SDS011;370;48.810;9.150;2023-05-07T01:40:32;3.53;;;2.28;;
773;SDS011;370;48.810;9.150;2023-05-07T01:43:00;7.55;;;2.25;;
773;SDS011;370;48.810;9.150;2023-05-07T01:45:28;4.55;;;2.17;;
773;SDS011;370;48.810;9.150;2023-05-07T01:47:56;2.53;;;2.10;;
773;SDS011;370;48.810;9.150;2023-05-07T01:50:24;6.97;;;2.72;;
773;SDS011;370;48.810;9.150;2023-05-07T01:52:51;5.15;;;2.65;;
773;SDS011;370;48.810;9.150;2023-05-07T01:55:18;2.40;;;2.10;;
773;SDS011;370;48.810;9.150;2023-05-07T01:57:46;2.53;;;2.10;;
773;SDS011;370;48.810;9.150;2023-05-07T02:00:13;4.72;;;2.33;;
773;SDS011;370;48.810;9.150;2023-05-07T02:02:40;4.57;;;2.65;;
773;SDS011;370;48.810;9.150;2023-05-07T02:05:07;2.60;;;1.75;;
773;SDS011;370;48.810;9.150;2023-05-07T02:07:35;2.70;;;2.22;;
773;SDS011;370;48.810;9.150;2023-05-07T02:10:01;5.38;;;2.20;;
773;SDS011;370;48.810;9.150;2023-05-07T02:12:29;3.05;;;2.17;;
773;SDS011;370;48.810;9.150;2023-05-07T02:14:57;4.55;;;2.05;;
773;SDS011;370;48.810;9.150;2023-05-07T02:17:23;1.83;;;1.73;;
773;SDS011;370;48.810;9.150;2023-05-07T02:19:50;6.13;;;2.05;;
773;SDS011;370;48.810;9.150;2023-05-07T02:22:53;4.18;;;2.20;;
773;SDS011;370;48.810;9.150;2023-05-07T02:25:20;4.32;;;1.63;;
773;SDS011;370;48.810;9.150;2023-05-07T02:27:47;5.18;;;1.75;;
773;SDS011;370;48.810;9.150;2023-05-07T02:30:15;5.13;;;2.13;;
773;SDS011;370;48.810;9.150;2023-05-07T02:32:42;4.90;;;2.53;;
773;SDS011;370;48.810;9.150;2023-05-07T02:35:08;2.78;;;2.10;;
773;SDS011;370;48.810;9.150;2023-05-07T02:37:35;3.33;;;2.33;;
773;SDS011;370;48.810;9.150;2023-05-07T02:40:02;3.25;;;1.90;;
773;SDS011;370;48.810;9.150;2023-05-07T02:42:29;3.58;;;1.90;;
773;SDS011;370;48.810;9.150;2023-05-07T02:44:56;6.35;;;2.55;;
773;SDS011;370;48.810;9.150;2023-05-07T02:47:24;5.90;;;2.00;;
773;SDS011;370;48.810;9.150;2023-05-07T02:49:52;2.85;;;2.03;;
773;SDS011;370;48.810;9.150;2023-05-07T02:52:18;6.95;;;2.47;;
773;SDS011;370;48.810;9.150;2023-05-07T02:54:45;3.85;;;2.30;;
773;SDS011;370;48.810;9.150;2023-05-07T02:57:12;2.95;;;1.88;;
773;SDS011;370;48.810;9.150;2023-05-07T03:03:02;4.57;;;2.30;;
773;SDS011;370;48.810;9.150;2023-05-07T03:05:29;3.78;;;1.90;;
773;SDS011;370;48.810;9.150;2023-05-07T03:07:56;6.32;;;2.17;;
773;SDS011;370;48.810;9.150;2023-05-07T03:10:22;8.98;;;2.30;;
773;SDS011;370;48.810;9.150;2023-05-07T03:12:49;3.72;;;2.65;;
773;SDS011;370;48.810;9.150;2023-05-07T03:15:16;6.05;;;2.40;;
773;SDS011;370;48.810;9.150;2023-05-07T03:17:42;4.97;;;2.47;;
773;SDS011;370;48.810;9.150;2023-05-07T03:20:11;3.40;;;2.17;;
773;SDS011;370;48.810;9.150;2023-05-07T03:22:38;6.85;;;1.95;;
773;SDS011;370;48.810;9.150;2023-05-07T03:25:05;4.60;;;2.70;;
773;SDS011;370;48.810;9.150;2023-05-07T03:27:32;4.70;;;2.20;;
773;SDS011;370;48.810;9.150;2023-05-07T03:29:59;5.65;;;2.72;;
773;SDS011;370;48.810;9.150;2023-05-07T03:32:26;3.42;;;1.98;;
773;SDS011;370;48.810;9.150;2023-05-07T03:34:53;2.78;;;1.98;;
773;SDS011;370;48.810;9.150;2023-05-07T03:37:22;3.97;;;1.80;;
773;SDS011;370;48.810;9.150;2023-05-07T03:39:48;4.85;;;2.40;;
773;SDS011;370;48.810;9.150;2023-05-07T03:42:15;2.22;;;1.98;;
773;SDS011;370;48.810;9.150;2023-05-07T03:44:42;3.58;;;3.28;;
773;SDS011;370;48.810;9.150;2023-05-07T03:47:09;2.65;;;2.30;;
773;SDS011;370;48.810;9.150;2023-05-07T03:49:36;3.25;;;1.80;;
773;SDS011;370;48.810;9.150;2023-05-07T03:52:03;5.97;;;2.90;;
773;SDS011;370;48.810;9.150;2023-05-07T03:54:31;5.88;;;2.00;;
773;SDS011;370;48.810;9.150;2023-05-07T03:56:58;7.03;;;2.20;;
773;SDS011;370;48.810;9.150;2023-05-07T03:59:25;5.97;;;2.33;;
773;SDS011;370;48.810;9.150;2023-05-07T04:01:52;3.15;;;2.13;;
773;SDS011;370;48.810;9.150;2023-05-07T04:04:18;1.98;;;1.90;;
773;SDS011;370;48.810;9.150;2023-05-07T04:06:46;3.45;;;2.15;;
773;SDS011;370;48.810;9.150;2023-05-07T04:09:13;3.30;;;2.40;;
773;SDS011;370;48.810;9.150;2023-05-07T04:11:42;2.90;;;1.95;;
773;SDS011;370;48.810;9.150;2023-05-07T04:14:09;5.05;;;3.22;;
773;SDS011;370;48.810;9.150;2023-05-07T04:16:35;3.42;;;2.25;;
773;SDS011;370;48.810;9.150;2023-05-07T04:19:02;3.33;;;2.28;;
773;SDS011;370;48.810;9.150;2023-05-07T04:21:29;2.58;;;1.85;;
773;SDS011;370;48.810;9.150;2023-05-07T04:23:55;3.78;;;1.95;;
773;SDS011;370;48.810;9.150;2023-05-07T04:26:22;4.90;;;2.83;;
773;SDS011;370;48.810;9.150;2023-05-07T04:28:50;3.50;;;2.20;;
773;SDS011;370;48.810;9.150;2023-05-07T04:31:17;2.35;;;2.22;;
773;SDS011;370;48.810;9.150;2023-05-07T04:33:44;1.88;;;1.85;;
773;SDS011;370;48.810;9.150;2023-05-07T04:36:11;4.07;;;2.20;;
773;SDS011;370;48.810;9.150;2023-05-07T04:38:38;3.35;;;2.10;;
773;SDS011;370;48.810;9.150;2023-05-07T04:41:05;2.95;;;1.90;;
773;SDS011;370;48.810;9.150;2023-05-07T04:43:32;2.67;;;2.15;;
773;SDS011;370;48.810;9.150;2023-05-07T04:46:00;4.82;;;2.58;;
773;SDS011;370;48.810;9.150;2023-05-07T04:48:27;4.13;;;2.25;;
773;SDS011;370;48.810;9.150;2023-05-07T04:50:55;5.80;;;3.22;;
773;SDS011;370;48.810;9.150;2023-05-07T04:53:21;3.08;;;2.33;;
773;SDS011;370;48.810;9.150;2023-05-07T04:55:48;6.45;;;2.45;;
773;SDS011;370;48.810;9.150;2023-05-07T04:58:15;3.10;;;2.10;;
773;SDS011;370;48.810;9.150;2023-05-07T05:00:41;2.15;;;1.98;;
773;SDS011;370;48.810;9.150;2023-05-07T05:03:10;2.75;;;1.92;;
773;SDS011;370;48.810;9.150;2023-05-07T05:05:36;5.07;;;2.15;;
773;SDS011;370;48.810;9.150;2023-05-07T05:08:03;8.13;;;2.33;;
773;SDS011;370;48.810;9.150;2023-05-07T05:10:30;6.20;;;2.70;;
773;SDS011;370;48.810;9.150;2023-05-07T05:12:57;4.05;;;2.72;;
773;SDS011;370;48.810;9.150;2023-05-07T05:15:23;2.40;;;1.90;;
773;SDS011;370;48.810;9.150;2023-05-07T05:17:50;4.57;;;2.17;;
773;SDS011;370;48.810;9.150;2023-05-07T05:20:18;1.75;;;1.65;;
773;SDS011;370;48.810;9.150;2023-05-07T05:22:45;5.10;;;2.53;;
773;SDS011;370;48.810;9.150;2023-05-07T05:25:12;4.15;;;2.22;;
773;SDS011;370;48.810;9.150;2023-05-07T05:27:38;3.40;;;2.45;;
773;SDS011;370;48.810;9.150;2023-05-07T05:30:05;6.43;;;2.33;;
773;SDS011;370;48.810;9.150;2023-05-07T05:32:33;3.58;;;2.40;;
773;SDS011;370;48.810;9.150;2023-05-07T05:34:59;6.25;;;2.25;;
773;SDS011;370;48.810;9.150;2023-05-07T05:37:28;13.65;;;2.90;;
773;SDS011;370;48.810;9.150;2023-05-07T05:39:55;4.05;;;2.78;;
773;SDS011;370;48.810;9.150;2023-05-07T05:42:21;6.53;;;2.75;;
773;SDS011;370;48.810;9.150;2023-05-07T05:44:48;5.63;;;2.60;;
773;SDS011;370;48.810;9.150;2023-05-07T05:47:15;3.67;;;2.33;;
773;SDS011;370;48.810;9.150;2023-05-07T05:49:42;5.63;;;2.50;;
773;SDS011;370;48.810;9.150;2023-05-07T05:52:09;2.60;;;2.15;;
773;SDS011;370;48.810;9.150;2023-05-07T05:54:37;5.43;;;3.10;;
773;SDS011;370;48.810;9.150;2023-05-07T05:57:04;8.93;;;3.20;;
773;SDS011;370;48.810;9.150;2023-05-07T05:59:31;7.65;;;3.30;;
773;SDS011;370;48.810;9.150;2023-05-07T06:01:57;4.97;;;3.38;;
773;SDS011;370;48.810;9.150;2023-05-07T06:04:24;9.32;;;3.60;;
773;SDS011;370;48.810;9.150;2023-05-07T06:06:51;6.13;;;3.42;;
773;SDS011;370;48.810;9.150;2023-05-07T06:09:18;13.60;;;3.25;;
773;SDS011;370;48.810;9.150;2023-05-07T06:11:46;11.43;;;3.17;;
773;SDS011;370;48.810;9.150;2023-05-07T06:14:13;6.22;;;3.75;;
773;SDS011;370;48.810;9.150;2023-05-07T06:16:40;6.00;;;3.47;;
773;SDS011;370;48.810;9.150;2023-05-07T06:19:07;8.43;;;3.93;;
773;SDS011;370;48.810;9.150;2023-05-07T06:21:33;7.20;;;3.90;;
773;SDS011;370;48.810;9.150;2023-05-07T06:24:00;7.87;;;3.20;;
773;SDS011;370;48.810;9.150;2023-05-07T06:26:27;6.80;;;3.23;;
773;SDS011;370;48.810;9.150;2023-05-07T06:28:55;9.33;;;3.83;;
773;SDS011;370;48.810;9.150;2023-05-07T06:31:21;3.97;;;3.07;;
773;SDS011;370;48.810;9.150;2023-05-07T06:33:48;3.07;;;2.57;;
773;SDS011;370;48.810;9.150;2023-05-07T06:36:15;4.90;;;3.10;;
773;SDS011;370;48.810;9.150;2023-05-07T06:38:42;7.27;;;3.03;;
773;SDS011;370;48.810;9.150;2023-05-07T06:41:09;4.30;;;3.63;;
773;SDS011;370;48.810;9.150;2023-05-07T06:43:36;7.60;;;3.10;;
773;SDS011;370;48.810;9.150;2023-05-07T06:46:04;7.20;;;4.20;;
773;SDS011;370;48.810;9.150;2023-05-07T06:48:31;6.23;;;3.70;;
773;SDS011;370;48.810;9.150;2023-05-07T06:50:57;6.93;;;3.63;;
773;SDS011;370;48.810;9.150;2023-05-07T06:53:24;3.67;;;2.83;;
773;SDS011;370;48.810;9.150;2023-05-07T06:55:51;4.47;;;2.47;;
773;SDS011;370;48.810;9.150;2023-05-07T06:58:18;5.77;;;3.17;;
773;SDS011;370;48.810;9.150;2023-05-07T07:00:45;3.53;;;3.10;;
773;SDS011;370;48.810;9.150;2023-05-07T07:03:13;11.00;;;2.67;;
773;SDS011;370;48.810;9.150;2023-05-07T07:05:40;5.77;;;2.50;;
773;SDS011;370;48.810;9.150;2023-05-07T07:08:07;4.47;;;2.90;;
773;SDS011;370;48.810;9.150;2023-05-07T07:10:34;3.07;;;2.80;;
773;SDS011;370;48.810;9.150;2023-05-07T07:13:00;3.33;;;2.70;;
773;SDS011;370;48.810;9.150;2023-05-07T07:15:27;4.40;;;3.10;;
773;SDS011;370;48.810;9.150;2023-05-07T07:17:54;6.77;;;2.70;;
773;SDS011;370;48.810;9.150;2023-05-07T07:20:22;3.80;;;2.97;;
773;SDS011;370;48.810;9.150;2023-05-07T07:22:49;3.60;;;2.80;;
773;SDS011;370;48.810;9.150;2023-05-07T07:25:16;5.20;;;3.20;;
773;SDS011;370;48.810;9.150;2023-05-07T07:27:42;4.13;;;3.07;;
773;SDS011;370;48.810;9.150;2023-05-07T07:30:09;5.57;;;3.33;;
773;SDS011;370;48.810;9.150;2023-05-07T07:32:36;4.30;;;2.70;;
773;SDS011;370;48.810;9.150;2023-05-07T07:35:04;4.60;;;2.50;;
773;SDS011;370;48.810;9.150;2023-05-07T07:37:32;4.43;;;3.43;;
773;SDS011;370;48.810;9.150;2023-05-07T07:39:59;3.90;;;3.20;;
773;SDS011;370;48.810;9.150;2023-05-07T07:42:26;4.13;;;2.87;;
773;SDS011;370;48.810;9.150;2023-05-07T07:44:54;3.53;;;2.73;;
773;SDS011;370;48.810;9.150;2023-05-07T07:47:22;4.97;;;2.83;;
773;SDS011;370;48.810;9.150;2023-05-07T07:49:48;2.73;;;2.47;;
773;SDS011;370;48.810;9.150;2023-05-07T07:52:15;4.10;;;3.00;;
773;SDS011;370;48.810;9.150;2023-05-07T07:54:44;6.40;;;2.80;;
773;SDS011;370;48.810;9.150;2023-05-07T07:57:10;3.87;;;2.90;;
773;SDS011;370;48.810;9.150;2023-05-07T07:59:37;6.23;;;2.90;;
773;SDS011;370;48.810;9.150;2023-05-07T08:02:04;6.30;;;3.40;;
773;SDS011;370;48.810;9.150;2023-05-07T08:04:31;5.23;;;3.10;;
773;SDS011;370;48.810;9.150;2023-05-07T08:06:58;7.47;;;3.20;;
773;SDS011;370;48.810;9.150;2023-05-07T08:09:25;3.20;;;2.60;;
773;SDS011;370;48.810;9.150;2023-05-07T08:11:53;7.17;;;2.80;;
773;SDS011;370;48.810;9.150;2023-05-07T08:14:20;5.83;;;3.10;;
773;SDS011;370;48.810;9.150;2023-05-07T08:16:46;3.10;;;2.90;;
773;SDS011;370;48.810;9.150;2023-05-07T08:19:13;5.20;;;2.50;;
773;SDS011;370;48.810;9.150;2023-05-07T08:21:40;4.77;;;2.80;;
773;SDS011;370;48.810;9.150;2023-05-07T08:24:07;4.73;;;3.10;;
773;SDS011;370;48.810;9.150;2023-05-07T08:26:33;5.20;;;3.67;;
773;SDS011;370;48.810;9.150;2023-05-07T08:29:02;3.53;;;2.80;;
773;SDS011;370;48.810;9.150;2023-05-07T08:31:29;4.03;;;2.90;;
773;SDS011;370;48.810;9.150;2023-05-07T08:33:55;6.13;;;2.57;;
773;SDS011;370;48.810;9.150;2023-05-07T08:36:23;5.50;;;3.23;;
773;SDS011;370;48.810;9.150;2023-05-07T08:38:50;7.33;;;2.70;;
773;SDS011;370;48.810;9.150;2023-05-07T08:41:17;3.40;;;2.50;;
773;SDS011;370;48.810;9.150;2023-05-07T08:43:46;4.83;;;2.60;;
773;SDS011;370;48.810;9.150;2023-05-07T08:46:16;3.77;;;2.67;;
773;SDS011;370;48.810;9.150;2023-05-07T08:48:44;6.70;;;3.07;;
773;SDS011;370;48.810;9.150;2023-05-07T08:51:12;3.53;;;2.73;;
773;SDS011;370;48.810;9.150;2023-05-07T08:53:39;3.47;;;2.40;;
773;SDS011;370;48.810;9.150;2023-05-07T08:56:07;3.17;;;2.77;;
773;SDS011;370;48.810;9.150;2023-05-07T08:58:35;3.20;;;3.00;;
773;SDS011;370;48.810;9.150;2023-05-07T09:01:03;5.40;;;2.60;;
773;SDS011;370;48.810;9.150;2023-05-07T09:03:34;4.63;;;3.03;;
773;SDS011;370;48.810;9.150;2023-05-07T09:06:02;3.50;;;2.80;;
773;SDS011;370;48.810;9.150;2023-05-07T09:08:30;3.37;;;3.17;;
773;SDS011;370;48.810;9.150;2023-05-07T09:10:58;3.13;;;2.97;;
773;SDS011;370;48.810;9.150;2023-05-07T09:13:26;3.50;;;2.60;;
773;SDS011;370;48.810;9.150;2023-05-07T09:15:54;2.63;;;2.53;;
773;SDS011;370;48.810;9.150;2023-05-07T09:18:21;9.80;;;2.53;;
773;SDS011;370;48.810;9.150;2023-05-07T09:20:51;5.90;;;2.97;;
773;SDS011;370;48.810;9.150;2023-05-07T09:23:17;3.37;;;3.03;;
773;SDS011;370;48.810;9.150;2023-05-07T09:25:44;3.30;;;2.83;;
773;SDS011;370;48.810;9.150;2023-05-07T09:28:11;4.30;;;3.77;;
773;SDS011;370;48.810;9.150;2023-05-07T09:30:38;8.33;;;3.60;;
773;SDS011;370;48.810;9.150;2023-05-07T09:33:04;3.80;;;3.20;;
773;SDS011;370;48.810;9.150;2023-05-07T09:35:31;4.17;;;2.63;;
773;SDS011;370;48.810;9.150;2023-05-07T09:38:00;3.37;;;2.83;;
773;SDS011;370;48.810;9.150;2023-05-07T09:40:28;4.30;;;3.00;;
773;SDS011;370;48.810;9.150;2023-05-07T09:43:09;4.10;;;3.20;;
773;SDS011;370;48.810;9.150;2023-05-07T09:45:36;4.73;;;3.07;;
773;SDS011;370;48.810;9.150;2023-05-07T09:48:04;3.97;;;3.20;;
773;SDS011;370;48.810;9.150;2023-05-07T09:50:32;8.43;;;3.30;;
773;SDS011;370;48.810;9.150;2023-05-07T09:53:04;3.03;;;2.83;;
773;SDS011;370;48.810;9.150;2023-05-07T09:55:31;4.93;;;3.87;;
773;SDS011;370;48.810;9.150;2023-05-07T09:57:58;4.73;;;3.00;;
773;SDS011;370;48.810;9.150;2023-05-07T10:00:27;3.03;;;2.87;;
773;SDS011;370;48.810;9.150;2023-05-07T10:02:57;7.80;;;3.20;;
773;SDS011;370;48.810;9.150;2023-05-07T10:05:24;9.20;;;3.23;;
773;SDS011;370;48.810;9.150;2023-05-07T10:07:52;2.80;;;2.63;;
773;SDS011;370;48.810;9.150;2023-05-07T10:10:20;3.13;;;2.83;;
773;SDS011;370;48.810;9.150;2023-05-07T10:12:48;3.30;;;2.70;;
773;SDS011;370;48.810;9.150;2023-05-07T10:15:16;3.40;;;2.73;;
773;SDS011;370;48.810;9.150;2023-05-07T10:17:43;3.80;;;2.50;;
773;SDS011;370;48.810;9.150;2023-05-07T10:20:10;3.03;;;2.80;;
773;SDS011;370;48.810;9.150;2023-05-07T10:22:38;3.40;;;3.20;;
773;SDS011;370;48.810;9.150;2023-05-07T10:25:09;7.63;;;3.20;;
773;SDS011;370;48.810;9.150;2023-05-07T10:27:44;2.90;;;2.73;;
773;SDS011;370;48.810;9.150;2023-05-07T10:30:14;3.47;;;3.27;;
773;SDS011;370;48.810;9.150;2023-05-07T10:32:47;2.80;;;2.60;;
773;SDS011;370;48.810;9.150;2023-05-07T10:35:19;4.40;;;3.10;;
773;SDS011;370;48.810;9.150;2023-05-07T10:37:49;3.13;;;2.93;;
773;SDS011;370;48.810;9.150;2023-05-07T10:40:16;3.23;;;3.03;;
773;SDS011;370;48.810;9.150;2023-05-07T10:42:55;3.03;;;2.83;;
773;SDS011;370;48.810;9.150;2023-05-07T10:45:24;6.03;;;5.13;;
773;SDS011;370;48.810;9.150;2023-05-07T10:48:08;8.20;;;5.20;;
773;SDS011;370;48.810;9.150;2023-05-07T10:50:38;16.40;;;8.30;;
773;SDS011;370;48.810;9.150;2023-05-07T10:53:21;4.33;;;2.87;;
773;SDS011;370;48.810;9.150;2023-05-07T11:02:00;3.63;;;2.70;;
773;SDS011;370;48.810;9.150;2023-05-07T11:04:31;3.83;;;2.90;;
773;SDS011;370;48.810;9.150;2023-05-07T11:07:20;5.53;;;2.60;;
773;SDS011;370;48.810;9.150;2023-05-07T11:10:03;2.70;;;2.33;;
773;SDS011;370;48.810;9.150;2023-05-07T11:12:46;3.00;;;2.80;;
773;SDS011;370;48.810;9.150;2023-05-07T11:15:15;3.87;;;2.70;;
773;SDS011;370;48.810;9.150;2023-05-07T11:18:03;3.07;;;2.33;;
773;SDS011;370;48.810;9.150;2023-05-07T11:26:25;2.53;;;2.33;;
773;SDS011;370;48.810;9.150;2023-05-07T11:28:54;2.60;;;2.40;;
773;SDS011;370;48.810;9.150;2023-05-07T11:31:24;2.80;;;2.60;;
773;SDS011;370;48.810;9.150;2023-05-07T11:33:53;2.40;;;2.20;;
773;SDS011;370;48.810;9.150;2023-05-07T11:36:21;2.40;;;2.20;;
773;SDS011;370;48.810;9.150;2023-05-07T11:38:49;3.97;;;2.30;;
773;SDS011;370;48.810;9.150;2023-05-07T11:41:16;2.90;;;2.50;;
773;SDS011;370;48.810;9.150;2023-05-07T11:43:54;4.07;;;1.90;;
773;SDS011;370;48.810;9.150;2023-05-07T11:46:26;2.37;;;2.10;;
773;SDS011;370;48.810;9.150;2023-05-07T11:48:54;3.90;;;2.30;;
773;SDS011;370;48.810;9.150;2023-05-07T11:51:22;1.87;;;1.80;;
773;SDS011;370;48.810;9.150;2023-05-07T11:53:51;7.23;;;2.10;;
773;SDS011;370;48.810;9.150;2023-05-07T11:56:18;2.20;;;2.00;;
773;SDS011;370;48.810;9.150;2023-05-07T11:58:46;4.63;;;2.17;;
773;SDS011;370;48.810;9.150;2023-05-07T12:01:15;7.60;;;2.10;;
773;SDS011;370;48.810;9.150;2023-05-07T12:03:45;4.70;;;2.30;;
773;SDS011;370;48.810;9.150;2023-05-07T12:06:13;5.57;;;2.53;;
773;SDS011;370;48.810;9.150;2023-05-07T12:08:41;4.23;;;2.07;;
773;SDS011;370;48.810;9.150;2023-05-07T12:11:09;3.03;;;2.27;;
773;SDS011;370;48.810;9.150;2023-05-07T12:13:39;3.80;;;2.10;;
773;SDS011;370;48.810;9.150;2023-05-07T12:16:07;1.97;;;1.80;;
773;SDS011;370;48.810;9.150;2023-05-07T12:18:34;2.00;;;1.67;;
773;SDS011;370;48.810;9.150;2023-05-07T12:21:04;1.93;;;1.80;;
773;SDS011;370;48.810;9.150;2023-05-07T12:23:32;4.87;;;2.03;;
773;SDS011;370;48.810;9.150;2023-05-07T12:26:00;2.63;;;2.00;;
773;SDS011;370;48.810;9.150;2023-05-07T12:28:27;3.10;;;1.57;;
773;SDS011;370;48.810;9.150;2023-05-07T12:30:55;3.23;;;2.40;;
773;SDS011;370;48.810;9.150;2023-05-07T12:33:24;2.37;;;2.17;;
773;SDS011;370;48.810;9.150;2023-05-07T12:35:53;1.90;;;1.80;;
773;SDS011;370;48.810;9.150;2023-05-07T12:38:22;1.50;;;1.50;;
773;SDS011;370;48.810;9.150;2023-05-07T12:40:50;2.70;;;1.83;;
773;SDS011;370;48.810;9.150;2023-05-07T12:43:20;4.97;;;2.60;;
773;SDS011;370;48.810;9.150;2023-05-07T12:45:50;2.40;;;1.73;;
773;SDS011;370;48.810;9.150;2023-05-07T12:48:17;3.30;;;1.33;;
773;SDS011;370;48.810;9.150;2023-05-07T12:50:48;5.50;;;2.50;;
773;SDS011;370;48.810;9.150;2023-05-07T12:53:16;1.50;;;1.40;;
773;SDS011;370;48.810;9.150;2023-05-07T12:55:44;9.53;;;1.60;;
773;SDS011;370;48.810;9.150;2023-05-07T12:58:16;1.33;;;1.23;;
773;SDS011;370;48.810;9.150;2023-05-07T13:00:43;3.87;;;1.67;;
773;SDS011;370;48.810;9.150;2023-05-07T13:03:11;7.90;;;2.08;;
773;SDS011;370;48.810;9.150;2023-05-07T13:05:38;3.80;;;1.23;;
773;SDS011;370;48.810;9.150;2023-05-07T13:08:05;3.10;;;1.42;;
773;SDS011;370;48.810;9.150;2023-05-07T13:10:34;9.40;;;1.48;;
773;SDS011;370;48.810;9.150;2023-05-07T13:13:02;7.00;;;1.73;;
773;SDS011;370;48.810;9.150;2023-05-07T13:15:30;2.50;;;1.73;;
773;SDS011;370;48.810;9.150;2023-05-07T13:17:57;2.10;;;1.42;;
773;SDS011;370;48.810;9.150;2023-05-07T13:20:24;6.13;;;1.75;;
773;SDS011;370;48.810;9.150;2023-05-07T13:22:51;8.73;;;1.92;;
773;SDS011;370;48.810;9.150;2023-05-07T13:25:18;4.43;;;1.67;;
773;SDS011;370;48.810;9.150;2023-05-07T13:27:45;1.30;;;1.30;;
773;SDS011;370;48.810;9.150;2023-05-07T13:30:13;1.80;;;1.50;;
773;SDS011;370;48.810;9.150;2023-05-07T13:32:40;2.17;;;1.33;;
773;SDS011;370;48.810;9.150;2023-05-07T13:35:07;1.30;;;1.20;;
773;SDS011;370;48.810;9.150;2023-05-07T13:37:34;2.83;;;1.23;;
773;SDS011;370;48.810;9.150;2023-05-07T13:40:01;5.22;;;2.30;;
773;SDS011;370;48.810;9.150;2023-05-07T13:42:28;2.55;;;1.77;;
773;SDS011;370;48.810;9.150;2023-05-07T13:44:55;4.47;;;1.58;;
773;SDS011;370;48.810;9.150;2023-05-07T13:47:24;4.85;;;1.45;;
773;SDS011;370;48.810;9.150;2023-05-07T13:49:51;2.75;;;1.30;;
773;SDS011;370;48.810;9.150;2023-05-07T13:52:18;1.73;;;1.40;;
773;SDS011;370;48.810;9.150;2023-05-07T13:54:46;2.85;;;1.33;;
773;SDS011;370;48.810;9.150;2023-05-07T13:57:13;1.70;;;1.30;;
773;SDS011;370;48.810;9.150;2023-05-07T13:59:40;1.15;;;1.10;;
773;SDS011;370;48.810;9.150;2023-05-07T14:02:06;1.25;;;1.10;;
773;SDS011;370;48.810;9.150;2023-05-07T14:04:37;1.80;;;1.15;;
773;SDS011;370;48.810;9.150;2023-05-07T14:07:04;3.17;;;1.60;;
773;SDS011;370;48.810;9.150;2023-05-07T14:09:31;1.60;;;1.25;;
773;SDS011;370;48.810;9.150;2023-05-07T14:11:58;1.55;;;1.10;;
773;SDS011;370;48.810;9.150;2023-05-07T14:14:25;1.88;;;0.90;;
773;SDS011;370;48.810;9.150;2023-05-07T14:16:51;3.72;;;1.20;;
773;SDS011;370;48.810;9.150;2023-05-07T14:19:18;1.25;;;1.20;;
773;SDS011;370;48.810;9.150;2023-05-07T14:21:49;4.72;;;1.63;;
773;SDS011;370;48.810;9.150;2023-05-07T14:24:15;1.05;;;1.00;;
773;SDS011;370;48.810;9.150;2023-05-07T14:26:42;5.82;;;1.65;;
773;SDS011;370;48.810;9.150;2023-05-07T14:29:10;2.28;;;1.40;;
773;SDS011;370;48.810;9.150;2023-05-07T14:31:36;5.50;;;1.60;;
773;SDS011;370;48.810;9.150;2023-05-07T14:34:03;5.30;;;1.95;;
773;SDS011;370;48.810;9.150;2023-05-07T14:36:30;2.13;;;1.98;;
773;SDS011;370;48.810;9.150;2023-05-07T14:38:58;3.17;;;1.70;;
773;SDS011;370;48.810;9.150;2023-05-07T14:41:26;2.77;;;2.53;;
773;SDS011;370;48.810;9.150;2023-05-07T14:43:52;4.88;;;2.28;;
773;SDS011;370;48.810;9.150;2023-05-07T14:46:19;1.95;;;1.55;;
773;SDS011;370;48.810;9.150;2023-05-07T14:48:46;2.70;;;1.80;;
773;SDS011;370;48.810;9.150;2023-05-07T14:51:13;3.80;;;2.00;;
773;SDS011;370;48.810;9.150;2023-05-07T14:53:40;3.30;;;1.70;;
773;SDS011;370;48.810;9.150;2023-05-07T14:56:09;1.85;;;1.50;;
773;SDS011;370;48.810;9.150;2023-05-07T14:58:36;2.08;;;1.63;;
773;SDS011;370;48.810;9.150;2023-05-07T15:01:03;1.38;;;1.23;;
773;SDS011;370;48.810;9.150;2023-05-07T15:03:30;1.85;;;1.42;;
773;SDS011;370;48.810;9.150;2023-05-07T15:05:57;2.90;;;1.77;;
773;SDS011;370;48.810;9.150;2023-05-07T15:08:23;1.70;;;1.60;;
773;SDS011;370;48.810;9.150;2023-05-07T15:10:50;2.90;;;1.53;;
773;SDS011;370;48.810;9.150;2023-05-07T15:13:18;1.67;;;1.67;;
773;SDS011;370;48.810;9.150;2023-05-07T15:15:45;1.87;;;1.57;;
773;SDS011;370;48.810;9.150;2023-05-07T15:18:12;5.70;;;1.90;;
773;SDS011;370;48.810;9.150;2023-05-07T15:20:40;3.57;;;1.70;;
773;SDS011;370;48.810;9.150;2023-05-07T15:23:07;3.33;;;2.10;;
773;SDS011;370;48.810;9.150;2023-05-07T15:25:36;1.63;;;1.40;;
773;SDS011;370;48.810;9.150;2023-05-07T15:28:03;5.10;;;1.93;;
773;SDS011;370;48.810;9.150;2023-05-07T15:30:31;5.33;;;1.93;;
773;SDS011;370;48.810;9.150;2023-05-07T15:32:58;3.30;;;1.80;;
773;SDS011;370;48.810;9.150;2023-05-07T15:35:26;1.67;;;1.63;;
773;SDS011;370;48.810;9.150;2023-05-07T15:37:53;2.20;;;1.93;;
773;SDS011;370;48.810;9.150;2023-05-07T15:40:20;2.03;;;1.70;;
773;SDS011;370;48.810;9.150;2023-05-07T15:42:47;1.37;;;1.33;;
773;SDS011;370;48.810;9.150;2023-05-07T15:45:14;6.47;;;1.70;;
773;SDS011;370;48.810;9.150;2023-05-07T15:47:42;7.00;;;2.43;;
773;SDS011;370;48.810;9.150;2023-05-07T15:50:09;3.13;;;1.77;;
773;SDS011;370;48.810;9.150;2023-05-07T15:52:36;4.00;;;2.10;;
773;SDS011;370;48.810;9.150;2023-05-07T15:55:05;2.53;;;1.87;;
773;SDS011;370;48.810;9.150;2023-05-07T15:57:33;2.30;;;1.83;;
773;SDS011;370;48.810;9.150;2023-05-07T16:00:00;6.73;;;2.20;;
773;SDS011;370;48.810;9.150;2023-05-07T16:02:28;4.10;;;2.47;;
773;SDS011;370;48.810;9.150;2023-05-07T16:04:56;5.67;;;2.87;;